aviador You're here:

SKCL Decoded Metar

CALI in COLOMBIA
Report Time2017-08-18 13:00:00
UTC Time2017-08-18 14:28:12
Flight Rules Old
Wind080° at 05 kt
W.Decomp.*RWY 01: 1.4 kt HW 4.8 kt RCW
W.Rank080° ranks 13
Current wind is above 080° avg. (3.9)
Visibility9999 m
Phenomena:N/A
Clouds:Few 015 Hf
Scattered 090 Hf
Broken 300 Hf
Expected CloudBase > 800 ft AGL from Temp-Dew spread
Ceiling30,000 ft
Temp20°C (ISA +11)
Dew Point18°C (88% RH)
QNH1017 hPa
Density Alt4,649 ft
Elevation3,179 ft
Report Wrong Elevation
Raw Report
METAR SKCL 181300Z 08005KT 9999 FEW015 SCT090 BKN300 20/18 A3002=

Extra information for SKCL:More info

Metar Taf Metar & Taf Last 4 Metars F.Rules Stats Wind Profile Meteogram Temp Stats Airport Information Weather charts Add Link Nearby VenuesMetar ALERT Operation Metar Decoded Social comments